Bookmark and Share
Track history (hours):
 

Roza A

Last reported at 2014-Apr-13 17:24 UTC. Time now 2014-Apr-17 09:37 UTC.
Position N 40°28' E 026°51'.

Length 169 m; draft 8.7 m.

Type: Ship (hazmat cat A). MMSI: 271001057.

NotesDate/timePositionNaut miles runAvg speedWind from/ knotsBaromVisibWave heightAir tempDewpointWater temp
2014-Apr-13 17:24N 40°28' E 026°51'1413.5
2014-Apr-13 16:21N 40°19' E 026°36'4511.7
2014-Apr-13 12:28N 39°53' E 025°47'4213.6
2014-Apr-13 09:25N 39°46' E 024°54'1613.7
2014-Apr-13 08:13N 39°49' E 024°33'1013.9
2014-Apr-13 07:29N 39°49' E 024°20'1213.2
2014-Apr-13 06:33N 39°50' E 024°04'1413.7
2014-Apr-13 05:32N 39°52' E 023°46'3113.1
2014-Apr-13 03:12N 40°02' E 023°08'154 3.0
2014-Apr-11 00:10N 37°36' E 024°10'1013.7
2014-Apr-10 23:26N 37°36' E 023°57'1213.2
2014-Apr-10 22:33N 37°38' E 023°43'1414.4
2014-Apr-10 21:33N 37°52' E 023°37'5 5.0
2014-Apr-10 20:30N 37°57' E 023°35'0 0.0
2014-Apr-10 19:30N 37°57' E 023°35'0 0.0
2014-Apr-10 18:18N 37°57' E 023°35'0 0.0
2014-Apr-10 16:12N 37°57' E 023°35'0 0.0
2014-Apr-10 15:24N 37°57' E 023°35'0 0.0
2014-Apr-10 14:18N 37°57' E 023°35'0 0.0
2014-Apr-10 13:24N 37°57' E 023°35'0 0.0
2014-Apr-10 12:30N 37°57' E 023°35'0 0.0
2014-Apr-10 11:33N 37°57' E 023°35'4 4.3
2014-Apr-10 10:31N 37°53' E 023°37'9 9.1
2014-Apr-10 09:33N 37°45' E 023°43'1010.3
2014-Apr-10 08:33N 37°36' E 023°48'1110.6
2014-Apr-10 07:30N 37°26' E 023°42'1110.5
2014-Apr-10 06:27N 37°16' E 023°35'1112.4
2014-Apr-10 05:32N 37°06' E 023°29'365 9.9
2014-Apr-08 16:33N 36°32' E 015°55'1110.7
2014-Apr-08 15:33N 36°32' E 015°41'1110.7
2014-Apr-08 14:33N 36°32' E 015°28'1510.6
2014-Apr-08 13:06N 36°33' E 015°09'710.3
2014-Apr-08 12:26N 36°33' E 015°00'1010.3
2014-Apr-08 11:29N 36°36' E 014°48'1010.7
2014-Apr-08 10:34N 36°38' E 014°36'1111.1
2014-Apr-08 09:34N 36°41' E 014°23'1110.5
2014-Apr-08 08:34N 36°46' E 014°11'1010.3
2014-Apr-08 07:34N 36°50' E 013°59'1010.5
2014-Apr-08 06:34N 36°54' E 013°47'1010.2
2014-Apr-08 05:34N 36°58' E 013°36'1010.2
2014-Apr-08 04:33N 37°02' E 013°24'21010.5
2014-Apr-07 08:33N 38°52' E 009°36'1514.6
2014-Apr-07 07:33N 39°00' E 009°21'1413.7
2014-Apr-07 06:32N 39°08' E 009°06'5 5.0
2014-Apr-07 05:33N 39°13' E 009°04'0 0.0
2014-Apr-07 04:33N 39°13' E 009°04'0 0.0
2014-Apr-07 03:33N 39°13' E 009°04'0 0.0
2014-Apr-07 02:33N 39°13' E 009°04'0 0.0
2014-Apr-07 01:33N 39°13' E 009°04'0 0.0
2014-Apr-07 00:33N 39°13' E 009°04'3 3.1
2014-Apr-06 23:32N 39°10' E 009°07'7 6.8
2014-Apr-06 22:33N 39°04' E 009°09'2 2.5
2014-Apr-06 21:33N 39°02' E 009°11'0 0.5
2014-Apr-06 20:33N 39°02' E 009°11'1 0.6
2014-Apr-06 19:33N 39°01' E 009°11'1211.8
2014-Apr-06 18:34N 38°53' E 008°60'1313.3
2014-Apr-06 17:33N 38°47' E 008°44'1414.2
2014-Apr-06 16:32N 38°47' E 008°26'1313.4
2014-Apr-06 15:33N 38°56' E 008°13'1515.1
2014-Apr-06 14:33N 39°08' E 008°01'1614.8
2014-Apr-06 13:28N 39°21' E 007°49'1514.6
2014-Apr-06 12:26N 39°35' E 007°41'23614.5
2014-Apr-05 20:08N 43°01' E 005°08'814.8
2014-Apr-05 19:33N 43°08' E 005°02'1414.4
2014-Apr-05 18:33N 43°22' E 004°57'5 4.8
2014-Apr-05 17:33N 43°25' E 004°51'0 0.0
2014-Apr-05 16:33N 43°25' E 004°51'0 0.0
2014-Apr-05 15:33N 43°25' E 004°51'0 0.0
2014-Apr-05 14:33N 43°25' E 004°51'0 0.0
2014-Apr-05 13:27N 43°25' E 004°51'0 0.0
2014-Apr-05 12:33N 43°25' E 004°51'0 0.0
2014-Apr-05 11:33N 43°25' E 004°51'0 0.0
2014-Apr-05 10:33N 43°25' E 004°51'0 0.0
2014-Apr-05 09:33N 43°25' E 004°51'0 0.0
2014-Apr-05 08:21N 43°25' E 004°51'0 0.0
2014-Apr-05 07:33N 43°25' E 004°51'0 0.0
2014-Apr-05 06:33N 43°25' E 004°51'0 0.0
2014-Apr-05 05:30N 43°25' E 004°51'0 0.0
2014-Apr-05 04:33N 43°25' E 004°51'5 4.9
2014-Apr-05 03:33N 43°23' E 004°57'8 7.9
2014-Apr-05 02:33N 43°16' E 005°01'10 9.7
2014-Apr-05 01:33N 43°06' E 005°03'6 6.4
2014-Apr-05 00:33N 43°03' E 004°56'1010.4
2014-Apr-04 23:33N 43°06' E 004°42'2010.2
2014-Apr-04 21:33N 43°10' E 004°15'1010.3
2014-Apr-04 20:33N 43°07' E 004°02'1010.1
2014-Apr-04 19:33N 43°03' E 003°49'18 8.9
2014-Apr-04 17:33N 42°56' E 003°27'8 8.1
2014-Apr-04 16:33N 42°48' E 003°27'8 8.5
2014-Apr-04 15:33N 42°39' E 003°27'8 8.4
2014-Apr-04 14:33N 42°31' E 003°27'10 8.4
2014-Apr-04 13:22N 42°21' E 003°28'7 8.7
2014-Apr-04 12:34N 42°14' E 003°26'1211.2
2014-Apr-04 11:32N 42°02' E 003°25'1111.4
2014-Apr-04 10:33N 41°51' E 003°22'1111.6
2014-Apr-04 09:33N 41°43' E 003°12'1212.5
2014-Apr-04 08:33N 41°37' E 002°57'1413.5
2014-Apr-04 07:33N 41°30' E 002°41'1313.4
2014-Apr-04 06:33N 41°23' E 002°26'1413.1
2014-Apr-04 05:31N 41°16' E 002°11'  

Dump ship's entire track history

sailing weather and tide predictions

Roza A — TCRB7 — position and weather